Belgium, New York
Current Conditions -  °F | °C
As of 11:03 AM on Tuesday 21 Oct 2014 (Local Time) from KFZY Reporting Station
Overcast Overcast  
Wind Chill: 11°   Ceiling: 3400
Heat Index: 11°   Visibility: 9mi
Dew Point:   Wind: 5mph
Humidity: 89%   Direction: NA
Pressure: 29.86"   Gusts: NA
Location:  43.1825°N, 76.3664°W
Report Text: KFZY 211503Z AUTO VRB04KT 9SM FEW008 BKN034 OVC042 11/09 A2986 RMK AO2 T01110094
Loading
Personal Weather Stations






























Interactive Weather Map
Tropical Storm Tracking
New forecast layout! Learn more

10-Day Weather Forecast

Advertisements
Track Severe Weather on mobile